DAL5195 PANC-PAFA
Flight info
| Callsign | DAL5195 |
|---|---|
| Flight time | 0h 43m |
| Altitude | 28000 |
| Route | CAWIN LIBER5 |
| Aircraft | A321/M-SDE3FGHIRWY/LB1 |
Departure
| Time | 2026-04-23 01:50 |
|---|---|
| Airport | Ted Stevens Anchorage International Airport (PANC) |
Arrival
| Time | 2026-04-23 02:34 |
|---|---|
| Airport | Fairbanks International Airport (PAFA) |
| Time | Latitude | Longitude | Altitude | Speed | Heading |
|---|---|---|---|---|---|
| 2026-04-23 01:18 | 61.17756 | -149.98963 | 106 ft | 0 kts | 23° |
| 2026-04-23 01:40 | 61.17752 | -149.98967 | 105 ft | 3 kts | 23° |
| 2026-04-23 01:41 | 61.17727 | -149.98989 | 105 ft | 4 kts | 25° |
| 2026-04-23 01:41 | 61.17703 | -149.99013 | 104 ft | 4 kts | 32° |
| 2026-04-23 01:41 | 61.17682 | -149.99047 | 103 ft | 4 kts | 53° |
| 2026-04-23 01:41 | 61.17672 | -149.99093 | 101 ft | 4 kts | 97° |
| 2026-04-23 01:42 | 61.17674 | -149.99112 | 101 ft | 1 kts | 115° |
| 2026-04-23 01:44 | 61.17670 | -149.99104 | 101 ft | 3 kts | 132° |
| 2026-04-23 01:44 | 61.17639 | -149.99084 | 103 ft | 5 kts | 160° |
| 2026-04-23 01:44 | 61.17580 | -149.99038 | 104 ft | 18 kts | 160° |
| 2026-04-23 01:44 | 61.17455 | -149.98941 | 105 ft | 19 kts | 159° |
| 2026-04-23 01:45 | 61.17399 | -149.98898 | 107 ft | 0 kts | 159° |
| 2026-04-23 01:46 | 61.17350 | -149.98863 | 106 ft | 13 kts | 160° |
| 2026-04-23 01:46 | 61.17280 | -149.98810 | 111 ft | 9 kts | 160° |
| 2026-04-23 01:46 | 61.17222 | -149.98767 | 112 ft | 13 kts | 160° |
| 2026-04-23 01:46 | 61.17131 | -149.98668 | 113 ft | 14 kts | 129° |
| 2026-04-23 01:47 | 61.17117 | -149.98488 | 115 ft | 13 kts | 90° |
| 2026-04-23 01:47 | 61.17117 | -149.98228 | 115 ft | 22 kts | 90° |
| 2026-04-23 01:47 | 61.17118 | -149.97907 | 113 ft | 23 kts | 89° |
| 2026-04-23 01:47 | 61.17117 | -149.97555 | 107 ft | 25 kts | 90° |
| 2026-04-23 01:48 | 61.17127 | -149.97263 | 102 ft | 21 kts | 87° |
| 2026-04-23 01:48 | 61.17131 | -149.96965 | 98 ft | 14 kts | 93° |
| 2026-04-23 01:48 | 61.17087 | -149.96808 | 98 ft | 14 kts | 163° |
| 2026-04-23 01:48 | 61.17004 | -149.96803 | 102 ft | 10 kts | 180° |
| 2026-04-23 01:49 | 61.16941 | -149.96810 | 99 ft | 13 kts | 196° |
| 2026-04-23 01:49 | 61.16880 | -149.97027 | 101 ft | 18 kts | 248° |
| 2026-04-23 01:49 | 61.16838 | -149.97244 | 106 ft | 14 kts | 248° |
| 2026-04-23 01:49 | 61.16798 | -149.97453 | 111 ft | 23 kts | 252° |
| 2026-04-23 01:50 | 61.16787 | -149.98191 | 118 ft | 86 kts | 270° |
| 2026-04-23 01:50 | 61.16784 | -149.99836 | 130 ft | 140 kts | 270° |
| 2026-04-23 01:50 | 61.16785 | -150.02044 | 481 ft | 155 kts | 271° |
| 2026-04-23 01:50 | 61.16902 | -150.04284 | 1050 ft | 162 kts | 285° |
| 2026-04-23 01:51 | 61.17339 | -150.06470 | 1531 ft | 172 kts | 294° |
| 2026-04-23 01:51 | 61.17856 | -150.08836 | 1908 ft | 191 kts | 293° |
| 2026-04-23 01:51 | 61.18450 | -150.11503 | 2227 ft | 213 kts | 294° |
| 2026-04-23 01:51 | 61.19344 | -150.13925 | 2881 ft | 218 kts | 328° |
| 2026-04-23 01:52 | 61.20806 | -150.14918 | 3395 ft | 226 kts | 351° |
| 2026-04-23 01:52 | 61.22375 | -150.15481 | 4058 ft | 232 kts | 347° |
| 2026-04-23 01:52 | 61.23907 | -150.16555 | 4743 ft | 235 kts | 334° |
| 2026-04-23 01:52 | 61.25473 | -150.17922 | 5165 ft | 255 kts | 333° |
| 2026-04-23 01:53 | 61.27162 | -150.19434 | 5675 ft | 271 kts | 333° |
| 2026-04-23 01:53 | 61.28931 | -150.20775 | 6437 ft | 281 kts | 343° |
| 2026-04-23 01:53 | 61.30931 | -150.21135 | 6993 ft | 300 kts | 5° |
| 2026-04-23 01:53 | 61.33109 | -150.20359 | 7072 ft | 334 kts | 10° |
| 2026-04-23 01:54 | 61.35445 | -150.19351 | 7482 ft | 352 kts | 14° |
| 2026-04-23 01:54 | 61.37787 | -150.17924 | 8519 ft | 343 kts | 17° |
| 2026-04-23 01:54 | 61.40006 | -150.16406 | 9890 ft | 332 kts | 16° |
| 2026-04-23 01:54 | 61.42227 | -150.14821 | 10395 ft | 348 kts | 18° |
| 2026-04-23 01:55 | 61.44548 | -150.13067 | 10613 ft | 370 kts | 18° |
| 2026-04-23 01:55 | 61.47007 | -150.11271 | 11185 ft | 378 kts | 17° |
| 2026-04-23 01:55 | 61.49528 | -150.09571 | 11915 ft | 383 kts | 15° |
| 2026-04-23 01:55 | 61.52094 | -150.07971 | 12693 ft | 386 kts | 14° |
| 2026-04-23 01:56 | 61.54693 | -150.06440 | 13440 ft | 391 kts | 13° |
| 2026-04-23 01:56 | 61.57328 | -150.04932 | 14150 ft | 394 kts | 13° |
| 2026-04-23 01:56 | 61.59989 | -150.03420 | 14844 ft | 398 kts | 13° |
| 2026-04-23 01:56 | 61.62672 | -150.01892 | 15554 ft | 400 kts | 13° |
| 2026-04-23 01:57 | 61.65364 | -150.00343 | 16257 ft | 403 kts | 13° |
| 2026-04-23 01:57 | 61.68047 | -149.98786 | 16988 ft | 406 kts | 13° |
| 2026-04-23 01:57 | 61.70774 | -149.97190 | 17733 ft | 408 kts | 13° |
| 2026-04-23 01:57 | 61.72622 | -149.96107 | 18235 ft | 409 kts | 13° |
| 2026-04-23 01:58 | 61.75742 | -149.94272 | 18927 ft | 412 kts | 13° |
| 2026-04-23 01:58 | 61.78515 | -149.92635 | 19512 ft | 415 kts | 13° |
| 2026-04-23 01:58 | 61.81305 | -149.90979 | 20117 ft | 417 kts | 13° |
| 2026-04-23 01:58 | 61.84109 | -149.89311 | 20704 ft | 420 kts | 13° |
| 2026-04-23 01:59 | 61.86933 | -149.87630 | 21284 ft | 422 kts | 13° |
| 2026-04-23 01:59 | 61.89731 | -149.85963 | 21848 ft | 425 kts | 13° |
| 2026-04-23 01:59 | 61.92585 | -149.84260 | 22424 ft | 428 kts | 13° |
| 2026-04-23 01:59 | 61.95462 | -149.82543 | 22993 ft | 430 kts | 13° |
| 2026-04-23 02:00 | 61.98351 | -149.80817 | 23548 ft | 433 kts | 13° |
| 2026-04-23 02:00 | 62.01261 | -149.79074 | 24009 ft | 436 kts | 13° |
| 2026-04-23 02:00 | 62.04189 | -149.77310 | 24477 ft | 439 kts | 13° |
| 2026-04-23 02:00 | 62.07135 | -149.75522 | 24915 ft | 441 kts | 13° |
| 2026-04-23 02:01 | 62.10091 | -149.73713 | 25364 ft | 443 kts | 13° |
| 2026-04-23 02:01 | 62.13022 | -149.71912 | 25814 ft | 445 kts | 13° |
| 2026-04-23 02:01 | 62.16008 | -149.70070 | 26281 ft | 448 kts | 13° |
| 2026-04-23 02:01 | 62.19006 | -149.68216 | 26745 ft | 450 kts | 13° |
| 2026-04-23 02:02 | 62.22019 | -149.66352 | 27214 ft | 451 kts | 13° |
| 2026-04-23 02:02 | 62.25039 | -149.64486 | 27689 ft | 453 kts | 13° |
| 2026-04-23 02:02 | 62.28073 | -149.62616 | 28201 ft | 453 kts | 12° |
| 2026-04-23 02:02 | 62.31109 | -149.61089 | 28692 ft | 444 kts | 7° |
| 2026-04-23 02:03 | 62.34130 | -149.59858 | 29193 ft | 441 kts | 6° |
| 2026-04-23 02:03 | 62.37093 | -149.58589 | 29697 ft | 440 kts | 8° |
| 2026-04-23 02:03 | 62.40073 | -149.57088 | 30211 ft | 440 kts | 10° |
| 2026-04-23 02:03 | 62.43029 | -149.55352 | 30666 ft | 440 kts | 12° |
| 2026-04-23 02:04 | 62.45963 | -149.53456 | 31116 ft | 440 kts | 13° |
| 2026-04-23 02:04 | 62.48880 | -149.51512 | 31557 ft | 439 kts | 13° |
| 2026-04-23 02:04 | 62.51792 | -149.49572 | 32032 ft | 436 kts | 13° |
| 2026-04-23 02:04 | 62.54687 | -149.47680 | 32519 ft | 434 kts | 12° |
| 2026-04-23 02:05 | 62.57570 | -149.45837 | 32990 ft | 430 kts | 12° |
| 2026-04-23 02:05 | 62.60396 | -149.44057 | 33457 ft | 427 kts | 11° |
| 2026-04-23 02:05 | 62.63238 | -149.42270 | 33883 ft | 425 kts | 11° |
| 2026-04-23 02:05 | 62.66092 | -149.40459 | 33870 ft | 429 kts | 11° |
| 2026-04-23 02:06 | 62.69004 | -149.38598 | 32836 ft | 444 kts | 12° |
| 2026-04-23 02:06 | 62.72009 | -149.36653 | 31769 ft | 457 kts | 12° |
| 2026-04-23 02:06 | 62.75101 | -149.34627 | 30699 ft | 470 kts | 13° |
| 2026-04-23 02:06 | 62.78245 | -149.32535 | 29983 ft | 473 kts | 13° |
| 2026-04-23 02:07 | 62.81385 | -149.30421 | 29382 ft | 470 kts | 13° |
| 2026-04-23 02:07 | 62.84496 | -149.28319 | 28831 ft | 466 kts | 14° |
| 2026-04-23 02:07 | 62.87542 | -149.26261 | 28296 ft | 463 kts | 13° |
| 2026-04-23 02:07 | 62.90602 | -149.24203 | 27908 ft | 456 kts | 13° |
| 2026-04-23 02:08 | 62.93608 | -149.22185 | 27590 ft | 447 kts | 13° |
| 2026-04-23 02:08 | 62.96554 | -149.20212 | 27302 ft | 438 kts | 13° |
| 2026-04-23 02:08 | 62.99440 | -149.18276 | 27048 ft | 429 kts | 13° |
| 2026-04-23 02:08 | 63.02273 | -149.16372 | 26784 ft | 423 kts | 13° |
| 2026-04-23 02:09 | 63.05077 | -149.14490 | 26536 ft | 420 kts | 13° |
| 2026-04-23 02:09 | 63.07869 | -149.12608 | 26275 ft | 419 kts | 13° |
| 2026-04-23 02:09 | 63.10610 | -149.10755 | 26025 ft | 417 kts | 13° |
| 2026-04-23 02:09 | 63.13377 | -149.08877 | 25790 ft | 416 kts | 13° |
| 2026-04-23 02:10 | 63.16139 | -149.06993 | 25541 ft | 414 kts | 13° |
| 2026-04-23 02:10 | 63.18892 | -149.05113 | 25313 ft | 414 kts | 13° |
| 2026-04-23 02:10 | 63.21641 | -149.03233 | 25084 ft | 413 kts | 13° |
| 2026-04-23 02:10 | 63.24382 | -149.01352 | 24843 ft | 412 kts | 13° |
| 2026-04-23 02:11 | 63.27115 | -148.99475 | 24609 ft | 410 kts | 13° |
| 2026-04-23 02:11 | 63.29797 | -148.97665 | 24374 ft | 405 kts | 12° |
| 2026-04-23 02:11 | 63.32488 | -148.95962 | 23978 ft | 401 kts | 11° |
| 2026-04-23 02:11 | 63.35172 | -148.94346 | 23521 ft | 398 kts | 11° |
| 2026-04-23 02:12 | 63.37833 | -148.92777 | 23097 ft | 394 kts | 11° |
| 2026-04-23 02:12 | 63.40471 | -148.91217 | 22620 ft | 390 kts | 11° |
| 2026-04-23 02:12 | 63.43082 | -148.89657 | 22190 ft | 387 kts | 11° |
| 2026-04-23 02:12 | 63.45676 | -148.88089 | 21752 ft | 385 kts | 11° |
| 2026-04-23 02:13 | 63.48217 | -148.86533 | 21333 ft | 383 kts | 11° |
| 2026-04-23 02:13 | 63.50775 | -148.84947 | 20906 ft | 381 kts | 11° |
| 2026-04-23 02:13 | 63.53325 | -148.83359 | 20460 ft | 379 kts | 11° |
| 2026-04-23 02:13 | 63.55863 | -148.81778 | 20024 ft | 378 kts | 11° |
| 2026-04-23 02:14 | 63.58389 | -148.80205 | 19582 ft | 377 kts | 11° |
| 2026-04-23 02:14 | 63.60913 | -148.78637 | 19152 ft | 375 kts | 11° |
| 2026-04-23 02:14 | 63.63423 | -148.77080 | 18718 ft | 374 kts | 11° |
| 2026-04-23 02:14 | 63.65928 | -148.75527 | 18282 ft | 373 kts | 11° |
| 2026-04-23 02:15 | 63.70890 | -148.72439 | 17315 ft | 370 kts | 11° |
| 2026-04-23 02:15 | 63.73361 | -148.70886 | 16886 ft | 367 kts | 11° |
| 2026-04-23 02:15 | 63.75814 | -148.69343 | 16478 ft | 365 kts | 11° |
| 2026-04-23 02:16 | 63.78242 | -148.67811 | 16081 ft | 361 kts | 11° |
| 2026-04-23 02:16 | 63.80659 | -148.66281 | 15681 ft | 359 kts | 11° |
| 2026-04-23 02:16 | 63.83058 | -148.64763 | 15295 ft | 357 kts | 11° |
| 2026-04-23 02:16 | 63.85441 | -148.63258 | 14893 ft | 354 kts | 11° |
| 2026-04-23 02:17 | 63.87810 | -148.61762 | 14497 ft | 352 kts | 11° |
| 2026-04-23 02:17 | 63.90125 | -148.60294 | 14113 ft | 350 kts | 11° |
| 2026-04-23 02:17 | 63.92464 | -148.58804 | 13695 ft | 348 kts | 12° |
| 2026-04-23 02:17 | 63.94789 | -148.57320 | 13291 ft | 345 kts | 11° |
| 2026-04-23 02:18 | 63.97087 | -148.55853 | 12892 ft | 341 kts | 12° |
| 2026-04-23 02:18 | 63.99365 | -148.54397 | 12507 ft | 339 kts | 12° |
| 2026-04-23 02:18 | 64.01624 | -148.52944 | 12099 ft | 336 kts | 12° |
| 2026-04-23 02:18 | 64.03868 | -148.51495 | 11699 ft | 334 kts | 12° |
| 2026-04-23 02:19 | 64.06098 | -148.50059 | 11305 ft | 332 kts | 12° |
| 2026-04-23 02:19 | 64.08292 | -148.48647 | 10901 ft | 331 kts | 12° |
| 2026-04-23 02:19 | 64.10507 | -148.47217 | 10504 ft | 330 kts | 12° |
| 2026-04-23 02:19 | 64.12683 | -148.45801 | 10056 ft | 318 kts | 12° |
| 2026-04-23 02:20 | 64.14775 | -148.44438 | 9615 ft | 306 kts | 14° |
| 2026-04-23 02:20 | 64.16793 | -148.43126 | 9482 ft | 302 kts | 14° |
| 2026-04-23 02:20 | 64.18807 | -148.41822 | 9374 ft | 300 kts | 18° |
| 2026-04-23 02:20 | 64.20825 | -148.40514 | 9184 ft | 302 kts | 14° |
| 2026-04-23 02:21 | 64.22842 | -148.39204 | 8831 ft | 301 kts | 14° |
| 2026-04-23 02:21 | 64.24822 | -148.37912 | 8467 ft | 299 kts | 14° |
| 2026-04-23 02:21 | 64.26826 | -148.36602 | 8111 ft | 298 kts | 14° |
| 2026-04-23 02:21 | 64.28819 | -148.35297 | 7748 ft | 297 kts | 14° |
| 2026-04-23 02:22 | 64.30807 | -148.33990 | 7384 ft | 297 kts | 14° |
| 2026-04-23 02:22 | 64.32790 | -148.32687 | 7027 ft | 296 kts | 14° |
| 2026-04-23 02:22 | 64.34772 | -148.31384 | 6662 ft | 296 kts | 14° |
| 2026-04-23 02:22 | 64.36721 | -148.30100 | 6453 ft | 288 kts | 14° |
| 2026-04-23 02:23 | 64.38646 | -148.28835 | 6113 ft | 287 kts | 14° |
| 2026-04-23 02:23 | 64.40538 | -148.27597 | 5782 ft | 285 kts | 15° |
| 2026-04-23 02:23 | 64.42400 | -148.26378 | 5613 ft | 268 kts | 15° |
| 2026-04-23 02:23 | 64.44133 | -148.25494 | 5483 ft | 242 kts | 4° |
| 2026-04-23 02:24 | 64.45749 | -148.25319 | 5066 ft | 227 kts | 0° |
| 2026-04-23 02:24 | 64.47322 | -148.25208 | 4499 ft | 224 kts | 2° |
| 2026-04-23 02:24 | 64.48834 | -148.25101 | 4349 ft | 207 kts | 3° |
| 2026-04-23 02:24 | 64.50247 | -148.24995 | 4223 ft | 203 kts | 4° |
| 2026-04-23 02:25 | 64.51662 | -148.24882 | 4112 ft | 204 kts | 4° |
| 2026-04-23 02:25 | 64.53056 | -148.24771 | 4016 ft | 203 kts | 5° |
| 2026-04-23 02:25 | 64.54461 | -148.24657 | 3931 ft | 200 kts | 5° |
| 2026-04-23 02:25 | 64.55780 | -148.24558 | 3840 ft | 180 kts | 5° |
| 2026-04-23 02:26 | 64.56985 | -148.24468 | 3772 ft | 168 kts | 6° |
| 2026-04-23 02:26 | 64.58133 | -148.24379 | 3701 ft | 163 kts | 7° |
| 2026-04-23 02:26 | 64.59264 | -148.24288 | 3631 ft | 162 kts | 7° |
| 2026-04-23 02:26 | 64.60344 | -148.23874 | 3576 ft | 152 kts | 24° |
| 2026-04-23 02:27 | 64.61244 | -148.22764 | 3490 ft | 144 kts | 41° |
| 2026-04-23 02:27 | 64.62056 | -148.21496 | 3402 ft | 141 kts | 44° |
| 2026-04-23 02:27 | 64.62844 | -148.20167 | 3312 ft | 139 kts | 46° |
| 2026-04-23 02:27 | 64.63614 | -148.18821 | 3230 ft | 138 kts | 46° |
| 2026-04-23 02:28 | 64.64374 | -148.17471 | 3148 ft | 137 kts | 46° |
| 2026-04-23 02:28 | 64.65124 | -148.16126 | 3058 ft | 135 kts | 46° |
| 2026-04-23 02:28 | 64.65863 | -148.14797 | 2972 ft | 134 kts | 47° |
| 2026-04-23 02:28 | 64.66597 | -148.13470 | 2886 ft | 133 kts | 46° |
| 2026-04-23 02:29 | 64.67327 | -148.12150 | 2804 ft | 132 kts | 46° |
| 2026-04-23 02:29 | 64.68042 | -148.10856 | 2725 ft | 131 kts | 47° |
| 2026-04-23 02:29 | 64.68761 | -148.09554 | 2643 ft | 131 kts | 46° |
| 2026-04-23 02:29 | 64.69477 | -148.08256 | 2569 ft | 130 kts | 46° |
| 2026-04-23 02:30 | 64.70187 | -148.06968 | 2484 ft | 129 kts | 46° |
| 2026-04-23 02:30 | 64.70896 | -148.05680 | 2405 ft | 129 kts | 45° |
| 2026-04-23 02:30 | 64.71599 | -148.04403 | 2333 ft | 127 kts | 45° |
| 2026-04-23 02:30 | 64.72295 | -148.03137 | 2255 ft | 126 kts | 45° |
| 2026-04-23 02:31 | 64.72976 | -148.01897 | 2187 ft | 126 kts | 45° |
| 2026-04-23 02:31 | 64.73664 | -148.00645 | 2136 ft | 125 kts | 45° |
| 2026-04-23 02:31 | 64.74350 | -147.99395 | 2038 ft | 125 kts | 44° |
| 2026-04-23 02:31 | 64.75038 | -147.98162 | 1847 ft | 125 kts | 40° |
| 2026-04-23 02:32 | 64.75743 | -147.96930 | 1621 ft | 127 kts | 38° |
| 2026-04-23 02:32 | 64.76462 | -147.95698 | 1510 ft | 129 kts | 37° |
| 2026-04-23 02:32 | 64.77151 | -147.94379 | 1314 ft | 128 kts | 42° |
| 2026-04-23 02:32 | 64.77841 | -147.93056 | 1076 ft | 129 kts | 40° |
| 2026-04-23 02:33 | 64.78526 | -147.91830 | 926 ft | 127 kts | 38° |
| 2026-04-23 02:33 | 64.79210 | -147.90566 | 767 ft | 126 kts | 44° |
| 2026-04-23 02:33 | 64.79889 | -147.89291 | 615 ft | 122 kts | 40° |
| 2026-04-23 02:33 | 64.80555 | -147.88065 | 485 ft | 121 kts | 42° |
| 2026-04-23 02:34 | 64.81178 | -147.86908 | 430 ft | 82 kts | 38° |
| 2026-04-23 02:34 | 64.81508 | -147.86305 | 440 ft | 48 kts | 38° |
| 2026-04-23 02:34 | 64.81680 | -147.85980 | 439 ft | 24 kts | 39° |
| 2026-04-23 02:34 | 64.81811 | -147.85751 | 428 ft | 23 kts | 36° |
| 2026-04-23 02:35 | 64.81891 | -147.85617 | 437 ft | 12 kts | 17° |
| 2026-04-23 02:35 | 64.81946 | -147.85685 | 434 ft | 0 kts | 309° |
| 2026-04-23 02:35 | 64.81951 | -147.85699 | 430 ft | 4 kts | 308° |
| 2026-04-23 02:35 | 64.81958 | -147.85746 | 429 ft | 3 kts | 277° |
| 2026-04-23 02:36 | 64.81940 | -147.85839 | 428 ft | 13 kts | 223° |
| 2026-04-23 02:36 | 64.81864 | -147.85981 | 438 ft | 14 kts | 218° |
| 2026-04-23 02:36 | 64.81793 | -147.86111 | 431 ft | 12 kts | 218° |
| 2026-04-23 02:36 | 64.81760 | -147.86212 | 427 ft | 7 kts | 260° |
| 2026-04-23 02:37 | 64.81762 | -147.86315 | 438 ft | 6 kts | 256° |
| 2026-04-23 02:37 | 64.81715 | -147.86424 | 436 ft | 8 kts | 219° |
| 2026-04-23 02:37 | 64.81691 | -147.86521 | 438 ft | 6 kts | 277° |
| 2026-04-23 02:37 | 64.81716 | -147.86573 | 427 ft | 4 kts | 317° |
| 2026-04-23 02:38 | 64.81726 | -147.86593 | 435 ft | 2 kts | 319° |
| 2026-04-23 02:38 | 64.81732 | -147.86606 | 430 ft | 0 kts | 319° |